Terminal Aerodrome Forecast
Issued by NWS Mt. Holly, NJ

Home | Current Version | Previous Version | Text Only | Print | Product List | Glossary On
Versions: 1 2 3 4 5 6 7 8 9 10 11 12 13 14 15 16 17 18 19 20 21 22 23 24 25 26 27 28 29 30 31 32
000
FTUS41 KPHI 051904 AAA
TAFRDG
TAF AMD
KRDG 051904Z 0519/0618 VRB03KT P6SM OVC035
      TEMPO 0602/0606 OVC025
     FM060600 VRB03KT P6SM OVC018
     FM060900 02008KT 4SM -RA BR OVC012
     FM061100 01010KT 2SM RA BR OVC006=

USA.gov is the U.S. government's official web portal to all federal, state and local government web resources and services.